Tiempo atmosférico en la estación meteorológica de Villarino De Los Aires, Salamanca (700 m.)



Fecha
DESCASC
Temp. máxima en grados centígrados (hora)
DESCASC
Temp. mínima en grados centígrados (hora)
DESCASC
Temp. media en grados centígrados
DESCASC
Racha de viento máxima en m/sg (hora)
DESCASC
Velocidad máxima media en intervalos de 10 minutos(hora)
DESCASC
Precipitaciones diarias en mm
DESCASC
Precipitaciones de 00:00 a 06:00 en mm
DESCASC
Precipitaciones de 06:00 a 12:00 en mm
DESCASC
Precipitaciones de 12:00 a 18:00 en mm
DESCASC
Precipitaciones de 18:00 a 24:00 en mm
DESCASC
18-08-2019 28.8 (17:10) 13.8 (07:20) 21.3 10 (17:10) 6.67 (18:10) 0 0 0 0 0
17-08-2019 34.4 (17:10) 16 (07:30) 25.2 10.56 (17:20) 5.83 (17:20) 0 0 0 0 0
16-08-2019 34.2 (18:20) 16.5 (07:00) 25.4 10 (17:20) 6.39 (20:50) 0 0 0 0 0
15-08-2019 34.2 (18:10) 15.7 (00:00) 25 8.06 (18:20) 4.72 (19:50) 0 0 0 0 0
14-08-2019 32.5 (18:00) 13 (00:00) 22.8 9.44 (18:20) 6.39 (19:20) 0 0 0 0 0
13-08-2019 29.5 (19:00) 10.1 (00:00) 19.8 6.94 (02:50) 4.44 (19:50) 0 0 0 0 0
12-08-2019 25.9 (17:40) 8.4 (00:00) 17.1 10 (16:10) 4.72 (13:20) 0 0 0 0 0
11-08-2019 24.6 (18:10) 12.4 (00:00) 18.5 12.5 (16:00) 7.5 (16:30) 0.6 0.6 0 0 0
10-08-2019 26.4 (17:00) 14.5 (00:00) 20.4 9.72 (13:00) 6.39 (21:00) 0 0 0 0 0
09-08-2019 25.8 (18:20) 15.8 (00:00) 20.8 12.5 (17:10) 8.33 (16:50) 5.8 0 5.8 0 0
08-08-2019 29.8 (16:40) 17.4 (00:00) 23.6 12.22 (18:10) 8.33 (19:10) 0 0 0 0 0
07-08-2019 25.6 (19:40) 16.4 (00:00) 21 7.78 (13:40) 4.72 (14:20) 0 0 0 0 0
06-08-2019 31 (14:50) 15.8 (00:00) 23.4 10 (19:20) 6.39 (19:30) 0 0 0 0 0
05-08-2019 33.4 (18:20) 15.4 (00:00) 24.4 9.17 (16:20) 6.11 (21:40) 0 0 0 0 0
04-08-2019 32.9 (17:00) 17 (00:00) 25 10.28 (18:20) 5.56 (17:30) 0 0 0 0 0
03-08-2019 34.7 (18:10) 17.5 (00:00) 26.1 10 (20:20) 7.22 (20:40) 0 0 0 0 0
02-08-2019 34.7 (19:20) 14.1 (00:00) 24.4 7.78 (17:10) 4.44 (20:00) 0 0 0 0 0
01-08-2019 32 (19:00) 14.9 (00:00) 23.4 9.17 (14:30) 5.28 (17:10) 0 0 0 0 0
31-07-2019 27.5 (20:20) 11.9 (00:00) 19.7 8.61 (03:20) 5.56 (03:20) 0 0 0 0 0
30-07-2019 28.6 (17:50) 9.8 (00:00) 19.2 8.06 (00:40) 5.83 (03:10) 0 0 0 0 0
29-07-2019 25.3 (18:30) 12.1 (00:00) 18.7 11.39 (16:40) 7.5 (17:10) 0 0 0 0 0
28-07-2019 29.9 (18:20) 11.1 (00:00) 20.5 8.89 (22:50) 6.11 (22:50) 0 0 0 0 0
27-07-2019 25.8 (19:30) 11.7 (00:00) 18.7 11.11 (16:20) 6.39 (14:20) 0.4 0 0.2 0.2 0
26-07-2019 25.6 (18:20) 12 (00:00) 18.8 12.78 (18:30) 7.78 (21:10) 0 0 0 0 0
25-07-2019 31.3 (17:50) 16.5 (00:00) 23.9 11.39 (18:00) 6.94 (17:20) 0 0 0 0 0
24-07-2019 35 (16:10) 18.2 (00:00) 26.6 10.56 (13:50) 5.83 (21:40) 0 0 0 0 0
23-07-2019 34.9 (17:50) 19.9 (00:00) 27.4 12.5 (05:10) 8.06 (19:00) 1.8 0.6 1.2 0 0
22-07-2019 38.5 (17:30) 18.7 (00:00) 28.6 16.39 (23:50) 10.28 (18:50) 15.6 0 0 0 15.6

Gráficas

Temp. máximas Temp. mínimas Temp. medias Precipitaciones Rachas de viento máximas Velocidades máximas media en intervalos de 10 minutos

Datos horarios

Fecha y hora oficial Temperatura (ºC) Velocidad del viento (km/h) Dirección del viento Racha (km/h) Dirección de racha Precipitación (mm) Presión (hPa) Tendencia (hPa) Humedad (%)
2019-08-20 23:00:00 20.5 16 Este 28 Este 0 -- -- 44
2019-08-20 22:00:00 21.3 10 Este 22 Nordeste 0 -- -- 38
2019-08-20 21:00:00 23.5 12 Nordeste 29 Nordeste 0 -- -- 35
2019-08-20 20:00:00 26 17 Nordeste 31 Nordeste 0 -- -- 32
2019-08-20 19:00:00 27.4 17 Nordeste 41 Nordeste 0 -- -- 30
2019-08-20 18:00:00 28.1 17 Este 35 Este 0 -- -- 30
2019-08-20 17:00:00 27.7 17 Nordeste 35 Este 0 -- -- 32
2019-08-20 16:00:00 27.1 18 Este 39 Nordeste 0 -- -- 32
2019-08-20 15:00:00 26.1 20 Nordeste 37 Nordeste 0 -- -- 36
2019-08-20 14:00:00 24.6 20 Nordeste 34 Este 0 -- -- 42
2019-08-20 13:00:00 22.5 23 Este 40 Este 0 -- -- 49
2019-08-20 12:00:00 20.9 21 Este 37 Este 0 -- -- 54
2019-08-20 11:00:00 19 23 Este 46 Este 0 -- -- 59
2019-08-20 10:00:00 16.9 24 Este 38 Este 0 -- -- 65
2019-08-20 09:00:00 15 23 Este 36 Este 0 -- -- 72
2019-08-20 08:00:00 13.5 14 Este 26 Nordeste 0 -- -- 79
2019-08-20 07:00:00 13.7 14 Nordeste 28 Este 0 -- -- 78
2019-08-20 06:00:00 13.9 13 Nordeste 28 Este 0 -- -- 76
2019-08-20 05:00:00 14.4 14 Nordeste 33 Este 0 -- -- 74
2019-08-20 04:00:00 15 15 Nordeste 31 Este 0 -- -- 72
2019-08-20 03:00:00 15.7 15 Este 31 Nordeste 0 -- -- 69
2019-08-20 02:00:00 16.2 17 Nordeste 36 Nordeste 0 -- -- 69
2019-08-20 01:00:00 17.6 16 Nordeste 36 Nordeste 0 -- -- 64
2019-08-20 00:00:00 20 17 Nordeste 27 Nordeste 0 -- -- 55
2019-08-19 23:00:00 21.1 10 Norte 17 Nordeste 0 -- -- 41
2019-08-19 22:00:00 22.1 8 Oeste 16 Oeste 0 -- -- 32
2019-08-19 21:00:00 23 12 Noroeste 19 Oeste 0 -- -- 36
2019-08-19 20:00:00 25.1 9 Noroeste 15 Noroeste 0 -- -- 36
2019-08-19 19:00:00 25.8 6 Noroeste 16 Oeste 0 -- -- 28
2019-08-19 18:00:00 26.6 8 Oeste 18 Noroeste 0 -- -- 31
2019-08-19 17:00:00 25 12 Sudoeste 20 Oeste 0 -- -- 39
2019-08-19 16:00:00 25.1 9 Noroeste 19 Noroeste 0 -- -- 42
2019-08-19 15:00:00 25.5 9 Noroeste 16 Oeste 0 -- -- 43
2019-08-19 14:00:00 23.5 4 Noroeste 17 Nordeste 0 -- -- 47
2019-08-19 13:00:00 22.3 9 Nordeste 22 Este 0 -- -- 51
2019-08-19 12:00:00 19.4 10 Nordeste 21 Nordeste 0 -- -- 61
2019-08-19 11:00:00 17.9 14 Nordeste 29 Este 0 -- -- 65
2019-08-19 10:00:00 16.2 14 Este 22 Nordeste 0 -- -- 71
2019-08-19 09:00:00 14 4 Norte 9 Nordeste 0 -- -- 82
2019-08-19 08:00:00 13.7 4 Nordeste 8 Nordeste 0 -- -- 81
2019-08-19 07:00:00 13.8 4 Nordeste 8 Nordeste 0 -- -- 81
2019-08-19 06:00:00 14.4 3 Norte 10 Nordeste 0 -- -- 79
2019-08-19 05:00:00 14.5 3 Oeste 10 Oeste 0 -- -- 78
2019-08-19 04:00:00 15.5 7 Oeste 10 Sudoeste 0 -- -- 72
2019-08-19 03:00:00 16.5 5 Oeste 13 Oeste 0 -- -- 71
2019-08-19 02:00:00 16.8 4 Sudoeste 14 Oeste 0 -- -- 69
2019-08-19 01:00:00 17.7 9 Oeste 17 Noroeste 0 -- -- 68
2019-08-19 00:00:00 18.9 11 Noroeste 27 Oeste 0 -- -- 64
2019-08-18 23:00:00 19.9 14 Noroeste 23 Oeste 0 -- -- 66
2019-08-18 22:00:00 21.7 16 Oeste 26 Oeste 0 -- -- 59
2019-08-18 21:00:00 24.7 14 Oeste 29 Oeste 0 -- -- 44
2019-08-18 20:00:00 26.2 20 Oeste 35 Oeste 0 -- -- 47
2019-08-18 19:00:00 27.8 22 Oeste 34 Oeste 0 -- -- 44
2019-08-18 18:00:00 28.3 20 Oeste 36 Oeste 0 -- -- 46
2019-08-18 17:00:00 28.3 19 Oeste 31 Oeste 0 -- -- 46
2019-08-18 16:00:00 27 23 Oeste 33 Oeste 0 -- -- 50
2019-08-18 15:00:00 26.3 22 Oeste 35 Oeste 0 -- -- 52
2019-08-18 14:00:00 25.8 17 Oeste 29 Oeste 0 -- -- 53
2019-08-18 13:00:00 23.1 15 Oeste 30 Oeste 0 -- -- 60
2019-08-18 12:00:00 22.5 14 Oeste 23 Oeste 0 -- -- 61
2019-08-18 11:00:00 19.3 7 Oeste 19 Sudoeste 0 -- -- 71
2019-08-18 10:00:00 17.4 10 Sudoeste 21 Sudoeste 0 -- -- 81
2019-08-18 09:00:00 15.4 15 Sur 21 Sur 0 -- -- 88
2019-08-18 08:00:00 14.7 13 Sur 18 Sur 0 -- -- 90
2019-08-18 07:00:00 14.1 9 Sur 13 Oeste 0 -- -- 87
2019-08-18 06:00:00 15.6 8 Sudoeste 24 Oeste 0 -- -- 82
2019-08-18 05:00:00 17.3 14 Oeste 23 Oeste 0 -- -- 73
2019-08-18 04:00:00 17.8 11 Sudoeste 19 Sudoeste 0 -- -- 70
2019-08-18 03:00:00 19.8 14 Oeste 24 Oeste 0 -- -- 60
2019-08-18 02:00:00 20.9 17 Oeste 27 Oeste 0 -- -- 55
2019-08-18 01:00:00 22.1 15 Oeste 26 Oeste 0 -- -- 48
2019-08-18 00:00:00 23.7 16 Oeste 32 Oeste 0 -- -- 47
2019-08-17 23:00:00 24.8 18 Oeste 27 Oeste 0 -- -- 43
2019-08-17 22:00:00 26.4 14 Oeste 28 Oeste 0 -- -- 39
2019-08-17 21:00:00 30.9 14 Noroeste 25 Oeste 0 -- -- 29
2019-08-17 20:00:00 32.8 14 Oeste 27 Noroeste 0 -- -- 26
2019-08-17 19:00:00 33.4 16 Oeste 32 Oeste 0 -- -- 24
2019-08-17 18:00:00 34 15 Oeste 38 Oeste 0 -- -- 25
2019-08-17 17:00:00 33.5 15 Oeste 31 Noroeste 0 -- -- 25
2019-08-17 16:00:00 32.5 15 Oeste 29 Oeste 0 -- -- 26
2019-08-17 15:00:00 32.3 9 Noroeste 27 Noroeste 0 -- -- 28
2019-08-17 14:00:00 31 12 Oeste 24 Oeste 0 -- -- 31
2019-08-17 13:00:00 29 11 Oeste 21 Oeste 0 -- -- 37
2019-08-17 12:00:00 26.1 8 Oeste 16 Noroeste 0 -- -- 44
2019-08-17 11:00:00 23 9 Oeste 17 Oeste 0 -- -- 53
2019-08-17 10:00:00 20.4 9 Oeste 14 Oeste 0 -- -- 63
2019-08-17 09:00:00 17 5 Oeste 18 Sudoeste 0 -- -- 74
2019-08-17 08:00:00 16.3 11 Sudoeste 19 Sudoeste 0 -- -- 76
2019-08-17 07:00:00 16.4 13 Sudoeste 20 Sudoeste 0 -- -- 75
2019-08-17 06:00:00 16.4 17 Sudoeste 22 Sudoeste 0 -- -- 72
2019-08-17 05:00:00 16.9 15 Sur 21 Sudoeste 0 -- -- 73
2019-08-17 04:00:00 18.6 12 Sudoeste 18 Sudoeste 0 -- -- 68
2019-08-17 03:00:00 19.8 14 Sudoeste 21 Oeste 0 -- -- 65
2019-08-17 02:00:00 20.9 11 Oeste 18 Oeste 0 -- -- 57
2019-08-17 01:00:00 21.9 14 Noroeste 24 Oeste 0 -- -- 54
2019-08-17 00:00:00 23.2 14 Oeste 22 Oeste 0 -- -- 50
2019-08-16 23:00:00 24.5 14 Oeste 33 Oeste 0 -- -- 47
2019-08-16 22:00:00 26.7 19 Oeste 30 Oeste 0 -- -- 39
2019-08-16 21:00:00 29.2 21 Oeste 35 Oeste 0 -- -- 33
2019-08-16 20:00:00 33.1 13 Oeste 30 Noroeste 0 -- -- 29
2019-08-16 19:00:00 33.5 18 Oeste 30 Oeste 0 -- -- 24
2019-08-16 18:00:00 34 17 Noroeste 36 Oeste 0 -- -- 21
2019-08-16 17:00:00 33.7 17 Oeste 31 Noroeste 0 -- -- 20
2019-08-16 16:00:00 33.1 17 Oeste 28 Oeste 0 -- -- 21
2019-08-16 15:00:00 32 11 Oeste 25 Oeste 0 -- -- 26
2019-08-16 14:00:00 30.1 12 Oeste 24 Oeste 0 -- -- 33
2019-08-16 13:00:00 28 10 Oeste 20 Noroeste 0 -- -- 41
2019-08-16 12:00:00 25.5 4 Oeste 10 Oeste 0 -- -- 47
2019-08-16 11:00:00 22.8 4 Noroeste 10 Nordeste 0 -- -- 54
2019-08-16 10:00:00 20.5 6 Nordeste 10 Este 0 -- -- 59
2019-08-16 09:00:00 18.5 5 Nordeste 9 Este 0 -- -- 66
2019-08-16 08:00:00 16.8 6 Este 10 Este 0 -- -- 73
2019-08-16 07:00:00 16.5 5 Nordeste 6 Nordeste 0 -- -- 74
2019-08-16 06:00:00 17.3 3 Nordeste 5 Norte 0 -- -- 72
2019-08-16 05:00:00 18 2 Nordeste 5 Nordeste 0 -- -- 69
2019-08-16 04:00:00 19.5 3 Noroeste 8 Norte 0 -- -- 65
2019-08-16 03:00:00 20.3 3 Nordeste 8 Nordeste 0 -- -- 63
2019-08-16 02:00:00 21.5 0 Calma 9 Oeste 0 -- -- 58
2019-08-16 01:00:00 22.3 5 Oeste 10 Oeste 0 -- -- 56
2019-08-16 00:00:00 23.8 7 Oeste 15 Oeste 0 -- -- 53
2019-08-15 23:00:00 25 8 Noroeste 18 Noroeste 0 -- -- 49
2019-08-15 22:00:00 26.4 8 Oeste 21 Oeste 0 -- -- 42
2019-08-15 21:00:00 29.9 13 Noroeste 23 Oeste 0 -- -- 35
2019-08-15 20:00:00 32.2 16 Noroeste 29 Noroeste 0 -- -- 31
2019-08-15 19:00:00 33.5 15 Noroeste 29 Oeste 0 -- -- 29
2019-08-15 18:00:00 34.1 15 Noroeste 27 Oeste 0 -- -- 28
2019-08-15 17:00:00 33.4 8 Noroeste 23 Oeste 0 -- -- 29
2019-08-15 16:00:00 32.5 13 Oeste 23 Oeste 0 -- -- 27
2019-08-15 15:00:00 31.7 8 Oeste 18 Norte 0 -- -- 30
2019-08-15 14:00:00 30.3 9 Noroeste 17 Noroeste 0 -- -- 33
2019-08-15 13:00:00 28.5 6 Norte 17 Noroeste 0 -- -- 36
2019-08-15 12:00:00 26.3 9 Nordeste 17 Nordeste 0 -- -- 46
2019-08-15 11:00:00 22.8 8 Noroeste 16 Este 0 -- -- 61
2019-08-15 10:00:00 20.2 6 Nordeste 12 Nordeste 0 -- -- 71
2019-08-15 09:00:00 17.3 2 Norte 7 Este 0 -- -- 85
2019-08-15 08:00:00 15.7 2 Este 11 Sudeste 0 -- -- 91
2019-08-15 07:00:00 16.6 6 Sudeste 9 Sudeste 0 -- -- 88
2019-08-15 06:00:00 16 4 Sudeste 8 Sudeste 0 -- -- 90
2019-08-15 05:00:00 16.4 2 Oeste 11 Oeste 0 -- -- 87
2019-08-15 04:00:00 18.3 8 Oeste 16 Oeste 0 -- -- 82
2019-08-15 03:00:00 19 8 Oeste 17 Oeste 0 -- -- 79
2019-08-15 02:00:00 20.1 12 Oeste 18 Oeste 0 -- -- 74
2019-08-15 01:00:00 21.1 10 Oeste 28 Oeste 0 -- -- 66
2019-08-15 00:00:00 22.2 18 Oeste 25 Oeste 0 -- -- 63
2019-08-14 23:00:00 23.6 12 Noroeste 24 Oeste 0 -- -- 62
2019-08-14 22:00:00 25.4 15 Noroeste 24 Noroeste 0 -- -- 53
2019-08-14 21:00:00 28.2 13 Noroeste 27 Noroeste 0 -- -- 44
2019-08-14 20:00:00 29.2 22 Oeste 33 Noroeste 0 -- -- 41
2019-08-14 19:00:00 31.4 20 Noroeste 34 Oeste 0 -- -- 36
2019-08-14 18:00:00 32.5 17 Noroeste 31 Noroeste 0 -- -- 33
2019-08-14 17:00:00 31.4 12 Oeste 29 Noroeste 0 -- -- 32
2019-08-14 16:00:00 30.9 15 Oeste 27 Oeste 0 -- -- 33
2019-08-14 15:00:00 29.8 18 Oeste 32 Oeste 0 -- -- 33
2019-08-14 14:00:00 28.5 10 Oeste 23 Noroeste 0 -- -- 33
2019-08-14 13:00:00 26.6 14 Oeste 22 Oeste 0 -- -- 32
2019-08-14 12:00:00 24.2 10 Noroeste 17 Oeste 0 -- -- 41
2019-08-14 11:00:00 21.7 4 Oeste 8 Oeste 0 -- -- 46
2019-08-14 10:00:00 18 5 Norte 8 Norte 0 -- -- 48
2019-08-14 09:00:00 15.9 4 Sudeste 6 Sudeste 0 -- -- 54
2019-08-14 08:00:00 13.7 2 Oeste 10 Sur 0 -- -- 56
2019-08-14 07:00:00 13.8 2 Sudoeste 8 Sudeste 0 -- -- 54
2019-08-14 06:00:00 14.5 2 Oeste 9 Sudoeste 0 -- -- 50
2019-08-14 05:00:00 14.4 6 Oeste 8 Oeste 0 -- -- 52
2019-08-14 04:00:00 15.8 2 Sudoeste 5 Sudeste 0 -- -- 49
2019-08-14 03:00:00 17.8 0 Calma 8 Oeste 0 -- -- 44
2019-08-14 02:00:00 18.5 8 Oeste 13 Oeste 0 -- -- 41
2019-08-14 01:00:00 18.6 7 Oeste 11 Oeste 0 -- -- 37
2019-08-14 00:00:00 20.2 5 Oeste 10 Noroeste 0 -- -- 31
2019-08-13 23:00:00 21.9 4 Oeste 13 Noroeste 0 -- -- 27
2019-08-13 22:00:00 22.5 7 Oeste 13 Noroeste 0 -- -- 28
2019-08-13 21:00:00 26.7 8 Noroeste 17 Oeste 0 -- -- 26
2019-08-13 20:00:00 28.3 12 Noroeste 24 Noroeste 0 -- -- 23
2019-08-13 19:00:00 29.5 11 Noroeste 24 Noroeste 0 -- -- 23
2019-08-13 18:00:00 28.2 6 Norte 20 Sudoeste 0 -- -- 23
2019-08-13 17:00:00 28.9 5 Oeste 20 Noroeste 0 -- -- 23
2019-08-13 16:00:00 27.5 5 Nordeste 21 Nordeste 0 -- -- 26
2019-08-13 15:00:00 26.9 8 Este 21 Nordeste 0 -- -- 27
2019-08-13 14:00:00 24.9 9 Nordeste 19 Nordeste 0 -- -- 31
2019-08-13 13:00:00 23.1 10 Este 23 Nordeste 0 -- -- 36
2019-08-13 12:00:00 21.2 10 Este 24 Nordeste 0 -- -- 41
2019-08-13 11:00:00 17.8 15 Nordeste 23 Este 0 -- -- 49
2019-08-13 10:00:00 15.1 13 Nordeste 20 Nordeste 0 -- -- 60
2019-08-13 09:00:00 12.4 10 Nordeste 15 Nordeste 0 -- -- 71
2019-08-13 08:00:00 10.4 8 Nordeste 12 Nordeste 0 -- -- 77
2019-08-13 07:00:00 10.7 8 Nordeste 21 Este 0 -- -- 75
2019-08-13 06:00:00 11.2 10 Este 17 Nordeste 0 -- -- 73
2019-08-13 05:00:00 11.7 8 Nordeste 19 Nordeste 0 -- -- 70
2019-08-13 04:00:00 13 14 Este 24 Nordeste 0 -- -- 66
2019-08-13 03:00:00 13.6 10 Nordeste 25 Nordeste 0 -- -- 64
2019-08-13 02:00:00 14.6 11 Este 18 Nordeste 0 -- -- 56
2019-08-13 01:00:00 16.3 8 Nordeste 17 Nordeste 0 -- -- 43
2019-08-13 00:00:00 16.9 2 Noroeste 12 Este 0 -- -- 37
2019-08-12 23:00:00 18.3 9 Este 12 Este 0 -- -- 34
2019-08-12 22:00:00 19.1 5 Este 14 Este 0 -- -- 32
2019-08-12 21:00:00 23.4 10 Este 22 Este 0 -- -- 26
2019-08-12 20:00:00 22.3 9 Este 23 Nordeste 0 -- -- 28
2019-08-12 19:00:00 23.6 12 Norte 26 Este 0 -- -- 27
2019-08-12 18:00:00 25 6 Nordeste 28 Nordeste 0 -- -- 25
2019-08-12 17:00:00 24.7 15 Nordeste 36 Nordeste 0 -- -- 28
2019-08-12 16:00:00 24.5 8 Este 26 Norte 0 -- -- 29
2019-08-12 15:00:00 23.7 9 Norte 27 Nordeste 0 -- -- 30
2019-08-12 14:00:00 22.1 13 Nordeste 29 Este 0 -- -- 33
2019-08-12 13:00:00 21.2 13 Norte 25 Norte 0 -- -- 38
2019-08-12 12:00:00 18.6 11 Nordeste 22 Nordeste 0 -- -- 45
2019-08-12 11:00:00 15.9 10 Nordeste 18 Nordeste 0 -- -- 56
2019-08-12 10:00:00 13.3 6 Nordeste 9 Nordeste 0 -- -- 69
2019-08-12 09:00:00 11.7 5 Nordeste 7 Nordeste 0 -- -- 76
2019-08-12 08:00:00 8.6 2 Sudoeste 5 Oeste 0 -- -- 86
2019-08-12 07:00:00 9.2 2 Noroeste 9 Oeste 0 -- -- 83
2019-08-12 06:00:00 9.8 2 Oeste 8 Oeste 0 -- -- 78
2019-08-12 05:00:00 10.5 4 Oeste 8 Oeste 0 -- -- 75
2019-08-12 04:00:00 10.9 4 Este 15 Noroeste -- -- -- 73
2019-08-12 03:00:00 12.2 7 Noroeste 15 Oeste 0 -- -- 68
2019-08-12 02:00:00 13.2 11 Noroeste 25 Noroeste 0 -- -- 65
2019-08-12 01:00:00 13.7 9 Noroeste 19 Noroeste 0 -- -- 65
2019-08-12 00:00:00 14.3 8 Noroeste 25 Noroeste 0 -- -- 63
2019-08-11 23:00:00 15.4 12 Noroeste 28 Noroeste 0 -- -- 60
2019-08-11 22:00:00 17.1 17 Noroeste 34 Oeste 0 -- -- 50
2019-08-11 21:00:00 19 19 Noroeste 35 Oeste 0 -- -- 47
2019-08-11 20:00:00 22 20 Noroeste 42 Noroeste 0 -- -- 39
2019-08-11 19:00:00 21.5 20 Noroeste 38 Noroeste 0 -- -- 35
2019-08-11 18:00:00 24.4 21 Noroeste 41 Oeste 0 -- -- 32
2019-08-11 17:00:00 22.9 21 Noroeste 44 Noroeste 0 -- -- 34
2019-08-11 16:00:00 22.9 26 Oeste 45 Oeste 0 -- -- 34
2019-08-11 15:00:00 22.1 19 Oeste 42 Oeste 0 -- -- 36
2019-08-11 14:00:00 21 13 Oeste 34 Oeste 0 -- -- 42
2019-08-11 13:00:00 19.8 17 Oeste 31 Oeste 0 -- -- 49
2019-08-11 12:00:00 18.5 17 Oeste 27 Oeste 0 -- -- 58
2019-08-11 11:00:00 16.3 14 Oeste 25 Oeste 0 -- -- 70
2019-08-11 10:00:00 14.8 13 Oeste 21 Oeste 0 -- -- 79
2019-08-11 09:00:00 13 12 Oeste 19 Oeste 0 -- -- 86
2019-08-11 08:00:00 12.6 13 Oeste 21 Oeste 0 -- -- 87
2019-08-11 07:00:00 12.6 13 Sudoeste 19 Sudoeste 0 -- -- 87
2019-08-11 06:00:00 13.4 10 Sudoeste 15 Sudoeste 0 -- -- 86
2019-08-11 05:00:00 14 9 Oeste 13 Oeste 0 -- -- 88
2019-08-11 04:00:00 14.6 8 Sur 15 Oeste 0 -- -- 89
2019-08-11 03:00:00 15 7 Sudoeste 15 Oeste 0.6 -- -- 85
2019-08-11 02:00:00 16.5 7 Sudoeste 23 Oeste 0 -- -- 74
2019-08-11 01:00:00 17.9 17 Oeste 29 Oeste 0 -- -- 61
2019-08-11 00:00:00 18.5 16 Oeste 26 Oeste 0 -- -- 58
2019-08-10 23:00:00 19.4 16 Noroeste 25 Oeste 0 -- -- 56
2019-08-10 22:00:00 20.4 9 Noroeste 30 Noroeste 0 -- -- 49
2019-08-10 21:00:00 22.6 23 Noroeste 32 Noroeste 0 -- -- 42
2019-08-10 20:00:00 25.6 15 Oeste 24 Oeste 0 -- -- 34
2019-08-10 19:00:00 25.8 14 Oeste 30 Noroeste 0 -- -- 34
2019-08-10 18:00:00 26.4 10 Noroeste 26 Oeste 0 -- -- 33
2019-08-10 17:00:00 26.4 14 Noroeste 26 Noroeste 0 -- -- 31
2019-08-10 16:00:00 25.4 8 Noroeste 24 Oeste 0 -- -- 35
2019-08-10 15:00:00 24.2 15 Oeste 26 Oeste 0 -- -- 37
2019-08-10 14:00:00 22.9 8 Noroeste 17 Oeste 0 -- -- 44
2019-08-10 13:00:00 22.2 6 Nordeste 35 Norte 0 -- -- 46
2019-08-10 12:00:00 20.3 8 Norte 16 Noroeste 0 -- -- 55
2019-08-10 11:00:00 18.6 4 Oeste 12 Noroeste 0 -- -- 61
2019-08-10 10:00:00 17.1 6 Noroeste 10 Noroeste 0 -- -- 72
2019-08-10 09:00:00 15.5 5 Oeste 9 Oeste 0 -- -- 78
2019-08-10 08:00:00 14.6 5 Sudoeste 9 Oeste 0 -- -- 80
2019-08-10 07:00:00 14.6 5 Oeste 15 Oeste 0 -- -- 80
2019-08-10 06:00:00 14.7 9 Oeste 14 Oeste 0 -- -- 80
2019-08-10 05:00:00 15.2 8 Oeste 17 Oeste 0 -- -- 77
2019-08-10 04:00:00 15.4 10 Oeste 18 Oeste 0 -- -- 75
2019-08-10 03:00:00 15.6 11 Oeste 20 Oeste 0 -- -- 73
2019-08-10 02:00:00 15.5 8 Oeste 16 Oeste 0 -- -- 72
2019-08-10 01:00:00 15.6 9 Oeste 18 Oeste 0 -- -- 73
2019-08-10 00:00:00 16.4 5 Norte 22 Oeste 0 -- -- 68
2019-08-09 23:00:00 17.6 16 Oeste 30 Oeste 0 -- -- 62
2019-08-09 22:00:00 18.8 21 Oeste 32 Oeste 0 -- -- 59
2019-08-09 21:00:00 21.1 17 Noroeste 33 Oeste 0 -- -- 50
2019-08-09 20:00:00 24.7 15 Noroeste 32 Oeste 0 -- -- 43
2019-08-09 19:00:00 24.5 16 Oeste 35 Oeste 0 -- -- 44
2019-08-09 18:00:00 25.1 22 Oeste 45 Oeste 0 -- -- 45
2019-08-09 17:00:00 25.7 26 Oeste 42 Oeste 0 -- -- 42
2019-08-09 16:00:00 25.1 26 Oeste 40 Oeste 0 -- -- 40
2019-08-09 15:00:00 24.2 21 Oeste 34 Oeste 0 -- -- 46
2019-08-09 14:00:00 23 21 Oeste 35 Oeste 0 -- -- 49
2019-08-09 13:00:00 21.3 18 Oeste 31 Oeste 0 -- -- 64
2019-08-09 12:00:00 19.2 18 Oeste 31 Oeste 0 -- -- 77
2019-08-09 11:00:00 16.9 19 Oeste 37 Oeste 0.2 -- -- 89
2019-08-09 10:00:00 16 15 Oeste 34 Oeste 0.8 -- -- 96
2019-08-09 09:00:00 15.9 23 Oeste 39 Oeste 2 -- -- 96
2019-08-09 08:00:00 16.9 22 Oeste 34 Oeste 2.4 -- -- 96
2019-08-09 07:00:00 18.9 18 Oeste 33 Sur 0.4 -- -- 92
2019-08-09 06:00:00 20.3 20 Sur 37 Sur 0 -- -- 81
2019-08-09 05:00:00 20.3 14 Sudoeste 30 Sudoeste 0 -- -- 80
2019-08-09 04:00:00 21 15 Sudoeste 27 Sudoeste 0 -- -- 75
2019-08-09 03:00:00 21.2 12 Sudoeste 25 Sudoeste 0 -- -- 72
2019-08-09 02:00:00 21.8 12 Sudoeste 28 Sudoeste 0 -- -- 68
2019-08-09 01:00:00 22.5 14 Sudoeste 30 Sudoeste 0 -- -- 67
2019-08-09 00:00:00 23.1 17 Sudoeste 25 Sudoeste 0 -- -- 64
2019-08-08 23:00:00 23.9 14 Sudoeste 25 Sudoeste 0 -- -- 57
2019-08-08 22:00:00 23.8 10 Sudoeste 27 Oeste 0 -- -- 57
2019-08-08 21:00:00 25.5 22 Oeste 37 Oeste 0 -- -- 53
2019-08-08 20:00:00 26.9 23 Oeste 42 Sudoeste 0 -- -- 50
2019-08-08 19:00:00 28.2 25 Oeste 44 Sudoeste 0 -- -- 49
2019-08-08 18:00:00 28.5 26 Sudoeste 42 Sur 0 -- -- 48
2019-08-08 17:00:00 28.6 26 Sudoeste 44 Sudoeste 0 -- -- 47
2019-08-08 16:00:00 28.6 24 Sudoeste 43 Sudoeste 0 -- -- 47
2019-08-08 15:00:00 27.8 23 Sudoeste 40 Oeste 0 -- -- 51
2019-08-08 14:00:00 26.1 20 Sudoeste 41 Sudoeste 0 -- -- 57
2019-08-08 13:00:00 25.1 18 Sudoeste 29 Sudoeste 0 -- -- 62
2019-08-08 12:00:00 24 15 Sudoeste 28 Sudoeste 0 -- -- 66
2019-08-08 11:00:00 24.7 15 Sudoeste 28 Sudoeste 0 -- -- 65
2019-08-08 10:00:00 21.7 14 Sudoeste 28 Sudoeste 0 -- -- 76
2019-08-08 09:00:00 19.7 12 Sudoeste 26 Sudoeste 0 -- -- 81
2019-08-08 08:00:00 18.1 13 Sudoeste 23 Sudoeste 0 -- -- 87
2019-08-08 07:00:00 17.4 3 Norte 14 Sudoeste 0 -- -- 90
2019-08-08 06:00:00 17.6 5 Oeste 12 Oeste 0 -- -- 88
2019-08-08 05:00:00 18.8 6 Sudoeste 14 Sudoeste 0 -- -- 78
2019-08-08 04:00:00 19.6 7 Sur 12 Sur 0 -- -- 70
2019-08-08 03:00:00 19.9 6 Sur 21 Sur 0 -- -- 69
2019-08-08 02:00:00 20.7 8 Sudoeste 16 Sudoeste 0 -- -- 66
2019-08-08 01:00:00 20.8 12 Oeste 17 Sudoeste 0 -- -- 69
2019-08-08 00:00:00 19.9 4 Sur 6 Sur 0 -- -- 78
2019-08-07 23:00:00 20 0 Calma 8 Nordeste 0 -- -- 78
2019-08-07 22:00:00 20.1 5 Norte 12 Norte 0 -- -- 78
2019-08-07 21:00:00 21.8 4 Norte 12 Norte 0 -- -- 69
2019-08-07 20:00:00 23.3 7 Norte 12 Noroeste 0 -- -- 60
2019-08-07 19:00:00 24.7 7 Noroeste 17 Noroeste 0 -- -- 55
2019-08-07 18:00:00 22.9 9 Noroeste 21 Noroeste 0 -- -- 61
2019-08-07 17:00:00 22.9 16 Noroeste 24 Noroeste 0 -- -- 58
2019-08-07 16:00:00 23.4 17 Noroeste 23 Oeste 0 -- -- 56
2019-08-07 15:00:00 23.9 15 Noroeste 25 Oeste 0 -- -- 58
2019-08-07 14:00:00 25.2 13 Noroeste 28 Oeste 0 -- -- 53
2019-08-07 13:00:00 23.2 11 Oeste 18 Oeste 0 -- -- 61
2019-08-07 12:00:00 22.4 8 Oeste 22 Oeste 0 -- -- 66
2019-08-07 11:00:00 21.5 6 Oeste 18 Oeste 0 -- -- 70
2019-08-07 10:00:00 19 9 Sudoeste 15 Sudoeste 0 -- -- 79
2019-08-07 09:00:00 18 5 Oeste 16 Oeste 0 -- -- 84
2019-08-07 08:00:00 16.6 10 Sudoeste 17 Sudoeste 0 -- -- 87
2019-08-07 07:00:00 17.1 11 Sudoeste 21 Sudoeste 0 -- -- 83
2019-08-07 06:00:00 17.8 10 Sudoeste 18 Oeste 0 -- -- 80
2019-08-07 05:00:00 18.5 11 Oeste 17 Oeste 0 -- -- 76
2019-08-07 04:00:00 19.3 12 Oeste 20 Sudoeste 0 -- -- 72
2019-08-07 03:00:00 19.5 4 Sudoeste 14 Sudoeste 0 -- -- 71
2019-08-07 02:00:00 20.3 4 Sudoeste 12 Sudoeste 0 -- -- 66
2019-08-07 01:00:00 20.7 6 Sudoeste 12 Sudoeste 0 -- -- 66
2019-08-07 00:00:00 21.2 10 Sudoeste 22 Sudoeste 0 -- -- 66
2019-08-06 23:00:00 21.9 7 Noroeste 18 Oeste 0 -- -- 63
2019-08-06 22:00:00 22.5 12 Oeste 21 Noroeste 0 -- -- 60
2019-08-06 21:00:00 23.5 14 Noroeste 31 Noroeste 0 -- -- 58
2019-08-06 20:00:00 25 23 Noroeste 36 Oeste 0 -- -- 54
2019-08-06 19:00:00 27.7 22 Oeste 36 Oeste 0 -- -- 42
2019-08-06 18:00:00 29 16 Noroeste 28 Oeste 0 -- -- 37
2019-08-06 17:00:00 29.8 17 Oeste 29 Oeste 0 -- -- 38
2019-08-06 16:00:00 30.4 17 Oeste 26 Oeste 0 -- -- 35
2019-08-06 15:00:00 30.7 12 Oeste 21 Oeste 0 -- -- 33
2019-08-06 14:00:00 29.3 12 Noroeste 20 Noroeste 0 -- -- 36
2019-08-06 13:00:00 27.4 10 Oeste 19 Oeste 0 -- -- 48
2019-08-06 12:00:00 24.4 10 Oeste 19 Oeste 0 -- -- 57
2019-08-06 11:00:00 22.1 5 Noroeste 13 Noroeste 0 -- -- 65
2019-08-06 10:00:00 20.4 8 Noroeste 13 Oeste 0 -- -- 71
2019-08-06 09:00:00 17.2 8 Sudoeste 19 Sur 0 -- -- 80
2019-08-06 08:00:00 16.2 15 Sur 20 Sudoeste 0 -- -- 82
2019-08-06 07:00:00 16.6 13 Sudoeste 27 Sur 0 -- -- 81
2019-08-06 06:00:00 17 14 Sur 20 Sur 0 -- -- 78
2019-08-06 05:00:00 17.5 5 Sur 17 Sudoeste 0 -- -- 78
2019-08-06 04:00:00 19.2 6 Sudoeste 20 Oeste 0 -- -- 72
2019-08-06 03:00:00 20.2 12 Oeste 18 Oeste 0 -- -- 67
2019-08-06 02:00:00 21.4 13 Oeste 20 Oeste 0 -- -- 61
2019-08-06 01:00:00 22.4 13 Oeste 24 Noroeste 0 -- -- 57
2019-08-06 00:00:00 23.8 15 Oeste 25 Oeste 0 -- -- 54
2019-08-05 23:00:00 25.4 17 Oeste 32 Oeste 0 -- -- 46
2019-08-05 22:00:00 26.8 16 Oeste 32 Oeste 0 -- -- 41
2019-08-05 21:00:00 29.8 15 Oeste 25 Oeste 0 -- -- 37
2019-08-05 20:00:00 31.7 17 Oeste 29 Oeste 0 -- -- 28
2019-08-05 19:00:00 32.3 17 Oeste 29 Oeste 0 -- -- 26
2019-08-05 18:00:00 32.7 15 Oeste 30 Oeste 0 -- -- 26
2019-08-05 17:00:00 32 16 Oeste 33 Oeste 0 -- -- 28
2019-08-05 16:00:00 32.6 12 Noroeste 24 Oeste 0 -- -- 30
2019-08-05 15:00:00 31 11 Noroeste 22 Oeste 0 -- -- 33
2019-08-05 14:00:00 30.1 11 Noroeste 20 Noroeste 0 -- -- 38
2019-08-05 13:00:00 27.9 6 Noroeste 15 Noroeste 0 -- -- 42
2019-08-05 12:00:00 25.1 7 Oeste 11 Noroeste 0 -- -- 55
2019-08-05 11:00:00 21.9 5 Norte 9 Este 0 -- -- 66
2019-08-05 10:00:00 19.5 3 Norte 7 Oeste 0 -- -- 74
2019-08-05 09:00:00 17.7 0 Calma 6 Oeste 0 -- -- 80
2019-08-05 08:00:00 15.7 5 Oeste 9 Oeste 0 -- -- 87
2019-08-05 07:00:00 15.6 8 Sudoeste 13 Sudoeste 0 -- -- 87
2019-08-05 06:00:00 16.2 11 Sudoeste 16 Oeste 0 -- -- 84
2019-08-05 05:00:00 16.7 10 Sudoeste 17 Sudoeste 0 -- -- 81
2019-08-05 04:00:00 17.7 10 Sudoeste 15 Sudoeste 0 -- -- 77
2019-08-05 03:00:00 19.1 12 Sudoeste 17 Sudoeste 0 -- -- 73
2019-08-05 02:00:00 20.1 12 Sudoeste 16 Sudoeste 0 -- -- 68
2019-08-05 01:00:00 21.4 12 Sudoeste 17 Oeste 0 -- -- 62
2019-08-05 00:00:00 23 14 Oeste 28 Oeste 0 -- -- 53
2019-08-04 23:00:00 24.3 18 Oeste 27 Oeste 0 -- -- 47
2019-08-04 22:00:00 25.8 17 Noroeste 27 Noroeste 0 -- -- 42
2019-08-04 21:00:00 29.5 18 Oeste 30 Oeste 0 -- -- 35
2019-08-04 20:00:00 32.3 15 Noroeste 30 Noroeste 0 -- -- 29
2019-08-04 19:00:00 31.8 16 Oeste 37 Noroeste 0 -- -- 28
2019-08-04 18:00:00 32.6 15 Oeste 31 Oeste 0 -- -- 27
2019-08-04 17:00:00 32.9 16 Oeste 32 Oeste 0 -- -- 29
2019-08-04 16:00:00 31.2 16 Oeste 37 Oeste 0 -- -- 29
2019-08-04 15:00:00 30.8 18 Oeste 30 Oeste 0 -- -- 33
2019-08-04 14:00:00 29.9 16 Noroeste 28 Noroeste 0 -- -- 40
2019-08-04 13:00:00 27.7 11 Oeste 22 Noroeste 0 -- -- 48
2019-08-04 12:00:00 25.6 9 Noroeste 18 Noroeste 0 -- -- 53
2019-08-04 11:00:00 22.3 7 Noroeste 15 Oeste 0 -- -- 66
2019-08-04 10:00:00 20.1 9 Oeste 21 Oeste 0 -- -- 73
2019-08-04 09:00:00 18.4 12 Oeste 21 Sudoeste 0 -- -- 79
2019-08-04 08:00:00 17 11 Sudoeste 17 Oeste 0 -- -- 82
2019-08-04 07:00:00 17.5 13 Sudoeste 22 Oeste 0 -- -- 79
2019-08-04 06:00:00 18 13 Sudoeste 18 Sudoeste 0 -- -- 76
2019-08-04 05:00:00 18.5 12 Sudoeste 17 Sudoeste 0 -- -- 74
2019-08-04 04:00:00 19.4 12 Sudoeste 18 Sudoeste 0 -- -- 71
2019-08-04 03:00:00 20.4 12 Oeste 20 Oeste 0 -- -- 68
2019-08-04 02:00:00 21.5 14 Oeste 22 Oeste 0 -- -- 64
2019-08-04 01:00:00 22.6 14 Oeste 24 Oeste 0 -- -- 58
2019-08-04 00:00:00 24.1 14 Oeste 22 Oeste 0 -- -- 52
2019-08-03 23:00:00 25.5 14 Oeste 28 Noroeste 0 -- -- 46
2019-08-03 22:00:00 27.1 19 Oeste 34 Noroeste 0 -- -- 38
2019-08-03 21:00:00 30 21 Oeste 36 Oeste 0 -- -- 32
2019-08-03 20:00:00 32.4 21 Oeste 32 Oeste 0 -- -- 28
2019-08-03 19:00:00 34.1 16 Noroeste 28 Oeste 0 -- -- 25
2019-08-03 18:00:00 34.3 15 Oeste 33 Oeste 0 -- -- 26
2019-08-03 17:00:00 33.8 14 Oeste 31 Oeste 0 -- -- 26
2019-08-03 16:00:00 33 14 Oeste 28 Oeste 0 -- -- 30
2019-08-03 15:00:00 32.3 14 Oeste 28 Oeste 0 -- -- 32
2019-08-03 14:00:00 30.7 9 Oeste 19 Noroeste 0 -- -- 37
2019-08-03 13:00:00 28.9 8 Oeste 16 Oeste 0 -- -- 39
2019-08-03 12:00:00 26.9 6 Norte 10 Noroeste 0 -- -- 43
2019-08-03 11:00:00 24.2 4 Norte 9 Norte 0 -- -- 49
2019-08-03 10:00:00 21.8 5 Norte 10 Norte 0 -- -- 55
2019-08-03 09:00:00 19.2 3 Noroeste 7 Nordeste 0 -- -- 60
2019-08-03 08:00:00 18 3 Este 6 Este 0 -- -- 62
2019-08-03 07:00:00 17.7 0 Calma 7 Nordeste 0 -- -- 62
2019-08-03 06:00:00 18.7 0 Calma 5 Oeste 0 -- -- 59
2019-08-03 05:00:00 19.3 3 Noroeste 7 Oeste 0 -- -- 56
2019-08-03 04:00:00 20 5 Oeste 8 Noroeste 0 -- -- 53
2019-08-03 03:00:00 22 6 Oeste 11 Oeste 0 -- -- 47
2019-08-03 02:00:00 22.6 6 Oeste 9 Oeste 0 -- -- 44
2019-08-03 01:00:00 23.3 5 Noroeste 14 Noroeste 0 -- -- 42
2019-08-03 00:00:00 24.7 11 Noroeste 22 Oeste 0 -- -- 39
2019-08-02 23:00:00 26.5 8 Oeste 22 Oeste 0 -- -- 30
2019-08-02 22:00:00 26.7 9 Oeste 13 Oeste 0 -- -- 32
2019-08-02 21:00:00 31.1 11 Oeste 20 Oeste 0 -- -- 27
2019-08-02 20:00:00 32.5 16 Oeste 23 Oeste 0 -- -- 28
2019-08-02 19:00:00 34.5 3 Oeste 19 Sudoeste 0 -- -- 23
2019-08-02 18:00:00 33.7 9 Norte 28 Oeste 0 -- -- 22
2019-08-02 17:00:00 32.9 14 Oeste 23 Oeste 0 -- -- 25
2019-08-02 16:00:00 32.4 9 Noroeste 22 Oeste 0 -- -- 29
2019-08-02 15:00:00 31.1 9 Norte 17 Norte 0 -- -- 32
2019-08-02 14:00:00 29 7 Noroeste 17 Noroeste 0 -- -- 39
2019-08-02 13:00:00 26.9 6 Norte 16 Noroeste 0 -- -- 46
2019-08-02 12:00:00 24.5 5 Noroeste 14 Norte 0 -- -- 53
2019-08-02 11:00:00 21 5 Noroeste 13 Norte 0 -- -- 63
2019-08-02 10:00:00 18.6 8 Nordeste 17 Nordeste 0 -- -- 70
2019-08-02 09:00:00 16.4 9 Nordeste 14 Este 0 -- -- 77
2019-08-02 08:00:00 14.5 5 Nordeste 12 Este 0 -- -- 85
2019-08-02 07:00:00 14.2 6 Este 14 Nordeste 0 -- -- 85
2019-08-02 06:00:00 15 7 Nordeste 12 Nordeste 0 -- -- 83
2019-08-02 05:00:00 15.8 7 Este 15 Este 0 -- -- 80
2019-08-02 04:00:00 17.2 10 Este 14 Este 0 -- -- 72
2019-08-02 03:00:00 18.6 5 Noroeste 11 Oeste 0 -- -- 56
2019-08-02 02:00:00 20.4 10 Oeste 15 Sudoeste 0 -- -- 52
2019-08-02 01:00:00 21.7 10 Oeste 22 Oeste 0 -- -- 47
2019-08-02 00:00:00 23.1 12 Oeste 27 Oeste 0 -- -- 43
2019-08-01 23:00:00 24.2 14 Oeste 23 Oeste 0 -- -- 39
2019-08-01 22:00:00 25.5 17 Oeste 27 Oeste 0 -- -- 37
2019-08-01 21:00:00 29.1 17 Noroeste 29 Oeste 0 -- -- 30
2019-08-01 20:00:00 31.7 9 Noroeste 23 Noroeste 0 -- -- 26
2019-08-01 19:00:00 32 13 Noroeste 30 Oeste 0 -- -- 26
2019-08-01 18:00:00 31.1 14 Oeste 32 Oeste 0 -- -- 24
2019-08-01 17:00:00 31.9 6 Noroeste 31 Oeste 0 -- -- 26
2019-08-01 16:00:00 30.6 12 Noroeste 23 Oeste 0 -- -- 28
2019-08-01 15:00:00 29.6 11 Oeste 33 Oeste 0 -- -- 29
2019-08-01 14:00:00 28.3 13 Noroeste 22 Oeste 0 -- -- 32
2019-08-01 13:00:00 26.5 9 Noroeste 14 Noroeste 0 -- -- 40
2019-08-01 12:00:00 24.1 7 Noroeste 13 Noroeste 0 -- -- 47
2019-08-01 11:00:00 22.2 7 Nordeste 14 Nordeste 0 -- -- 54
2019-08-01 10:00:00 19.6 8 Nordeste 14 Este 0 -- -- 61
2019-08-01 09:00:00 17.6 5 Nordeste 12 Este 0 -- -- 64
2019-08-01 08:00:00 15.4 6 Este 9 Este 0 -- -- 73
2019-08-01 07:00:00 15 9 Este 13 Este 0 -- -- 72
2019-08-01 06:00:00 15.5 5 Nordeste 10 Nordeste 0 -- -- 68
2019-08-01 05:00:00 16.3 8 Este 11 Nordeste 0 -- -- 61
2019-08-01 04:00:00 16.7 5 Nordeste 8 Este 0 -- -- 54
2019-08-01 03:00:00 18.1 4 Nordeste 6 Nordeste 0 -- -- 50
2019-08-01 02:00:00 18.8 0 Calma 5 Noroeste 0 -- -- 47
2019-08-01 01:00:00 19.8 4 Oeste 6 Oeste 0 -- -- 43
2019-08-01 00:00:00 21.9 2 Este 10 Sudeste 0 -- -- 38
2019-07-31 23:00:00 22.8 7 Este 12 Este 0 -- -- 37
2019-07-31 22:00:00 23.3 8 Este 12 Nordeste 0 -- -- 36
2019-07-31 21:00:00 25.2 8 Nordeste 16 Noroeste 0 -- -- 34
2019-07-31 20:00:00 27.1 9 Nordeste 18 Norte 0 -- -- 32
2019-07-31 19:00:00 26.8 11 Norte 19 Norte 0 -- -- 34
2019-07-31 18:00:00 27.3 12 Norte 21 Norte 0 -- -- 34
2019-07-31 17:00:00 27.3 11 Norte 19 Norte 0 -- -- 35
2019-07-31 16:00:00 25.9 10 Nordeste 21 Nordeste 0 -- -- 37
2019-07-31 15:00:00 26.4 13 Este 29 Este 0 -- -- 35
2019-07-31 14:00:00 23.4 17 Nordeste 28 Nordeste 0 -- -- 42
2019-07-31 13:00:00 20.8 17 Nordeste 26 Nordeste 0 -- -- 49
2019-07-31 12:00:00 19.8 14 Nordeste 28 Nordeste 0 -- -- 53
2019-07-31 11:00:00 18 15 Nordeste 28 Nordeste 0 -- -- 59
2019-07-31 10:00:00 16.1 15 Nordeste 26 Nordeste 0 -- -- 66
2019-07-31 09:00:00 13.7 13 Nordeste 20 Nordeste 0 -- -- 74
2019-07-31 08:00:00 12.1 12 Nordeste 23 Este 0 -- -- 79
2019-07-31 07:00:00 12 13 Nordeste 20 Nordeste 0 -- -- 79
2019-07-31 06:00:00 12.7 13 Nordeste 23 Nordeste 0 -- -- 76
2019-07-31 05:00:00 13.4 13 Nordeste 27 Este 0 -- -- 72
2019-07-31 04:00:00 14.5 15 Nordeste 31 Este 0 -- -- 66
2019-07-31 03:00:00 15.6 15 Nordeste 24 Este 0 -- -- 61
2019-07-31 02:00:00 16.7 7 Nordeste 12 Nordeste 0 -- -- 51
2019-07-31 01:00:00 17 5 Nordeste 8 Nordeste 0 -- -- 49
2019-07-31 00:00:00 18 3 Oeste 13 Noroeste 0 -- -- 47
2019-07-30 23:00:00 19.7 9 Noroeste 20 Noroeste 0 -- -- 43
2019-07-30 22:00:00 21.3 11 Noroeste 18 Noroeste 0 -- -- 38
2019-07-30 21:00:00 26.3 9 Noroeste 15 Oeste 0 -- -- 26
2019-07-30 20:00:00 27.9 11 Noroeste 24 Noroeste 0 -- -- 23
2019-07-30 19:00:00 28 10 Oeste 23 Noroeste 0 -- -- 24
2019-07-30 18:00:00 27.6 11 Norte 23 Noroeste 0 -- -- 23
2019-07-30 17:00:00 27.2 10 Nordeste 24 Nordeste 0 -- -- 25
2019-07-30 16:00:00 26.5 8 Nordeste 22 Norte 0 -- -- 25
2019-07-30 15:00:00 25.3 12 Norte 22 Norte 0 -- -- 26
2019-07-30 14:00:00 23.1 8 Norte 21 Nordeste 0 -- -- 32
2019-07-30 13:00:00 21.6 12 Norte 23 Norte 0 -- -- 36
2019-07-30 12:00:00 19.6 6 Noroeste 16 Norte 0 -- -- 46
2019-07-30 11:00:00 16.5 7 Norte 12 Nordeste 0 -- -- 57
2019-07-30 10:00:00 14.1 5 Norte 9 Nordeste 0 -- -- 65
2019-07-30 09:00:00 12.4 3 Noroeste 10 Oeste 0 -- -- 72
2019-07-30 08:00:00 10.6 8 Oeste 12 Noroeste 0 -- -- 78
2019-07-30 07:00:00 9.9 7 Sudoeste 12 Oeste 0 -- -- 79
2019-07-30 06:00:00 10.2 5 Oeste 15 Oeste 0 -- -- 78
2019-07-30 05:00:00 11.7 10 Noroeste 27 Noroeste 0 -- -- 73
2019-07-30 04:00:00 11.8 12 Oeste 28 Oeste 0 -- -- 75
2019-07-30 03:00:00 12.4 14 Oeste 27 Oeste 0 -- -- 73
2019-07-30 02:00:00 13.1 9 Oeste 22 Oeste 0 -- -- 69
2019-07-30 01:00:00 14 13 Oeste 29 Oeste 0 -- -- 65
2019-07-30 00:00:00 15.3 14 Oeste 24 Oeste 0 -- -- 58
2019-07-29 23:00:00 16.6 17 Noroeste 35 Noroeste 0 -- -- 51
2019-07-29 22:00:00 18 15 Noroeste 34 Noroeste 0 -- -- 48
2019-07-29 21:00:00 21.5 20 Noroeste 35 Noroeste 0 -- -- 41
2019-07-29 20:00:00 24 21 Noroeste 34 Oeste 0 -- -- 35
2019-07-29 19:00:00 24.1 25 Oeste 39 Oeste 0 -- -- 35
2019-07-29 18:00:00 25.2 24 Noroeste 40 Oeste 0 -- -- 32
2019-07-29 17:00:00 24.8 25 Oeste 41 Oeste 0 -- -- 33
2019-07-29 16:00:00 24.2 24 Oeste 40 Oeste 0 -- -- 37
2019-07-29 15:00:00 23.5 20 Oeste 40 Oeste 0 -- -- 42
2019-07-29 14:00:00 22.4 21 Noroeste 35 Oeste 0 -- -- 43
2019-07-29 13:00:00 21.4 20 Oeste 36 Noroeste 0 -- -- 50
2019-07-29 12:00:00 19.2 17 Oeste 33 Oeste 0 -- -- 57
2019-07-29 11:00:00 18 18 Oeste 26 Oeste 0 -- -- 64
2019-07-29 10:00:00 16.6 14 Oeste 24 Oeste 0 -- -- 66
2019-07-29 09:00:00 15.8 13 Oeste 20 Oeste 0 -- -- 62
2019-07-29 08:00:00 13.8 2 Sudoeste 10 Sudeste 0 -- -- 68
2019-07-29 07:00:00 12.1 3 Sudeste 22 Sur 0 -- -- 69
2019-07-29 06:00:00 12.7 8 Sur 19 Sur 0 -- -- 62
2019-07-29 05:00:00 14 9 Sur 18 Sudoeste 0 -- -- 53
2019-07-29 04:00:00 15.5 13 Oeste 26 Oeste 0 -- -- 55
2019-07-29 03:00:00 16 11 Oeste 25 Oeste 0 -- -- 59
2019-07-29 02:00:00 18.1 15 Oeste 31 Noroeste 0 -- -- 52
2019-07-29 01:00:00 19.9 22 Oeste 31 Oeste 0 -- -- 47
2019-07-29 00:00:00 20.8 16 Oeste 27 Oeste 0 -- -- 51
2019-07-28 23:00:00 22.9 18 Oeste 32 Oeste 0 -- -- 44
2019-07-28 22:00:00 24.2 8 Oeste 13 Oeste 0 -- -- 29
2019-07-28 21:00:00 27.9 10 Noroeste 22 Oeste 0 -- -- 24
2019-07-28 20:00:00 28.9 10 Oeste 27 Oeste 0 -- -- 25
2019-07-28 19:00:00 29.5 15 Oeste 31 Oeste 0 -- -- 23
2019-07-28 18:00:00 29.2 17 Oeste 29 Oeste 0 -- -- 25
2019-07-28 17:00:00 28.7 8 Oeste 26 Noroeste 0 -- -- 29
2019-07-28 16:00:00 28.2 12 Noroeste 24 Noroeste 0 -- -- 28
2019-07-28 15:00:00 26.6 9 Noroeste 23 Oeste 0 -- -- 34
2019-07-28 14:00:00 25.7 9 Noroeste 18 Noroeste 0 -- -- 38
2019-07-28 13:00:00 23.1 6 Norte 18 Nordeste 0 -- -- 44
2019-07-28 12:00:00 22.1 9 Nordeste 27 Este 0 -- -- 47
2019-07-28 11:00:00 19.4 11 Nordeste 20 Nordeste 0 -- -- 55
2019-07-28 10:00:00 17.2 10 Nordeste 16 Este 0 -- -- 66
2019-07-28 09:00:00 14.2 4 Nordeste 9 Nordeste 0 -- -- 76
2019-07-28 08:00:00 12.4 3 Nordeste 6 Este 0 -- -- 82
2019-07-28 07:00:00 11.5 2 Nordeste 8 Este 0 -- -- 84
2019-07-28 06:00:00 12.5 4 Este 12 Este 0 -- -- 81
2019-07-28 05:00:00 13 4 Este 9 Este 0 -- -- 81
2019-07-28 04:00:00 13.8 6 Este 13 Este 0 -- -- 81
2019-07-28 03:00:00 15 10 Este 17 Este 0 -- -- 76
2019-07-28 02:00:00 16.5 12 Este 19 Nordeste 0 -- -- 70
2019-07-28 01:00:00 17.1 8 Este 14 Noroeste 0 -- -- 65
2019-07-28 00:00:00 18.6 6 Noroeste 22 Noroeste 0 -- -- 60
2019-07-27 23:00:00 19 6 Noroeste 23 Oeste 0 -- -- 61
2019-07-26 12:00:00 -- -- -- -- -- -- -- -- --
2019-07-26 11:00:00 -- -- -- -- -- -- -- -- --
2019-07-26 10:00:00 16 17 Oeste 32 Oeste 0 -- -- 70
2019-07-26 09:00:00 14.3 19 Oeste 31 Oeste 0 -- -- 74
2019-07-26 08:00:00 12.4 15 Oeste 21 Sudoeste 0 -- -- 85
2019-07-26 07:00:00 12.5 16 Sudoeste 25 Sudoeste 0 -- -- 87
2019-07-26 06:00:00 13 11 Oeste 21 Oeste 0 -- -- 85
2019-07-26 05:00:00 14.2 14 Oeste 24 Oeste 0 -- -- 82
2019-07-26 04:00:00 15.3 16 Oeste 25 Oeste 0 -- -- 81
2019-07-26 03:00:00 16.4 18 Oeste 29 Oeste 0 -- -- 75
2019-07-26 02:00:00 17.8 15 Oeste 24 Oeste 0 -- -- 72
2019-07-26 01:00:00 18.3 18 Noroeste 27 Noroeste 0 -- -- 75
2019-07-26 00:00:00 19.2 19 Noroeste 29 Oeste 0 -- -- 75
2019-07-25 23:00:00 20.2 22 Oeste 33 Noroeste 0 -- -- 74
2019-07-25 22:00:00 21.3 19 Oeste 37 Oeste 0 -- -- 70
2019-07-25 21:00:00 22.3 19 Oeste 34 Oeste 0 -- -- 66
2019-07-25 20:00:00 24.5 19 Noroeste 33 Oeste 0 -- -- 54
2019-07-25 19:00:00 26.2 24 Oeste 37 Oeste 0 -- -- 45
2019-07-25 18:00:00 29.4 25 Oeste 41 Oeste 0 -- -- 39
2019-07-25 17:00:00 29.3 24 Oeste 39 Oeste 0 -- -- 38
2019-07-25 16:00:00 30.2 25 Oeste 40 Sudoeste 0 -- -- 35
2019-07-25 15:00:00 29.4 18 Oeste 39 Oeste 0 -- -- 38
2019-07-25 14:00:00 28.3 22 Oeste 36 Oeste 0 -- -- 42
2019-07-25 13:00:00 27.8 16 Oeste 29 Oeste 0 -- -- 42
2019-07-25 12:00:00 25.7 14 Sudoeste 26 Oeste 0 -- -- 48
2019-07-25 11:00:00 21.9 4 Oeste 9 Oeste 0 -- -- 60
2019-07-25 10:00:00 22.1 5 Noroeste 8 Noroeste 0 -- -- 58
2019-07-25 09:00:00 20.1 0 Calma 5 Norte 0 -- -- 64
2019-07-25 08:00:00 17.7 5 Sudoeste 13 Sudoeste 0 -- -- 68
2019-07-25 07:00:00 17 12 Sur 17 Sur 0 -- -- 67
2019-07-25 06:00:00 17.1 7 Sudoeste 22 Sur 0 -- -- 65
2019-07-25 05:00:00 18.6 18 Sur 22 Sur 0 -- -- 58
2019-07-25 04:00:00 19.4 16 Sur 19 Sur 0 -- -- 54
2019-07-25 03:00:00 20.5 14 Sudoeste 18 Sudoeste 0 -- -- 52
2019-07-25 02:00:00 22.1 12 Sudoeste 18 Sudoeste 0 -- -- 45
2019-07-25 01:00:00 22.1 9 Sudoeste 18 Oeste 0 -- -- 48
2019-07-25 00:00:00 24.8 14 Oeste 23 Oeste 0 -- -- 41
2019-07-24 23:00:00 25.9 12 Oeste 30 Oeste 0 -- -- 39
2019-07-24 22:00:00 27.8 19 Oeste 31 Oeste 0 -- -- 38
2019-07-24 21:00:00 31.5 16 Oeste 32 Oeste 0 -- -- 32
2019-07-24 20:00:00 33.6 17 Sudoeste 35 Sudoeste 0 -- -- 25
2019-07-24 19:00:00 34.5 16 Sudoeste 35 Sur 0 -- -- 25
2019-07-24 18:00:00 35 13 Sudoeste 34 Sudoeste 0 -- -- 26
2019-07-24 17:00:00 34.3 17 Sudoeste 32 Sudeste 0 -- -- 26
2019-07-24 16:00:00 33.7 12 Sudoeste 33 Sudoeste 0 -- -- 30
2019-07-24 15:00:00 33.3 16 Oeste 33 Sudoeste 0 -- -- 34
2019-07-24 14:00:00 32.8 13 Oeste 38 Oeste 0 -- -- 33
2019-07-24 13:00:00 30.8 12 Oeste 27 Noroeste 0 -- -- 41
2019-07-24 12:00:00 29.5 12 Sudoeste 22 Sudoeste 0 -- -- 42
2019-07-24 11:00:00 26.2 8 Norte 12 Norte 0 -- -- 60
2019-07-24 10:00:00 24 5 Este 10 Este 0 -- -- 67
2019-07-24 09:00:00 20.7 2 Norte 6 Sur 0 -- -- 77
2019-07-24 08:00:00 19 4 Sudeste 8 Sudeste 0 -- -- 80
2019-07-24 07:00:00 18.6 3 Nordeste 14 Sur 0 -- -- 76
2019-07-24 06:00:00 19.4 7 Sur 13 Oeste 0 -- -- 74
2019-07-24 05:00:00 21 11 Oeste 17 Sudoeste 0 -- -- 64
2019-07-24 04:00:00 21.1 9 Sudoeste 21 Sur 0 -- -- 72
2019-07-24 03:00:00 21.3 5 Oeste 15 Sur 0 -- -- 75
2019-07-24 02:00:00 21.9 8 Sudeste 15 Este 0 -- -- 70
2019-07-24 01:00:00 23.1 6 Sudoeste 17 Oeste 0 -- -- 62
2019-07-24 00:00:00 24.3 14 Oeste 21 Oeste 0 -- -- 59
2019-07-23 23:00:00 25 9 Oeste 17 Oeste 0 -- -- 59
2019-07-23 22:00:00 25.5 5 Noroeste 15 Oeste 0 -- -- 58
2019-07-23 21:00:00 25.7 12 Noroeste 22 Noroeste 0 -- -- 57
2019-07-23 20:00:00 24.8 4 Sudoeste 39 Oeste 0 -- -- 58
2019-07-23 19:00:00 28.9 29 Oeste 42 Oeste 0 -- -- 44
2019-07-23 18:00:00 34.4 17 Sudoeste 33 Sudoeste 0 -- -- 31
2019-07-23 17:00:00 33.8 16 Sudoeste 31 Oeste 0 -- -- 32
2019-07-23 16:00:00 34.1 16 Oeste 29 Oeste 0 -- -- 32
2019-07-23 15:00:00 33.3 15 Sudoeste 32 Sudoeste 0 -- -- 34
2019-07-23 14:00:00 32.8 10 Sudoeste 22 Sudoeste 0 -- -- 35
2019-07-23 13:00:00 31.4 13 Sur 26 Sudoeste 0 -- -- 35
2019-07-23 12:00:00 28.4 7 Noroeste 12 Oeste 0 -- -- 55
2019-07-23 11:00:00 26.2 7 Noroeste 13 Este 0 -- -- 61
2019-07-23 10:00:00 23.8 9 Sudeste 17 Sudeste 0 -- -- 65
2019-07-23 09:00:00 22.6 14 Sudeste 24 Sudeste 0 -- -- 63
2019-07-23 08:00:00 20.2 14 Sudeste 26 Sudeste 0 -- -- 73
2019-07-23 07:00:00 21.2 15 Oeste 41 Sudoeste 1.2 -- -- 63
2019-07-23 06:00:00 20.4 20 Sudoeste 45 Sur 0.6 -- -- 70
2019-07-23 05:00:00 23.5 12 Sudeste 37 Sudoeste 0 -- -- 51
2019-07-23 04:00:00 23.1 12 Sudeste 28 Sudeste 0 -- -- 53
2019-07-23 03:00:00 23.7 12 Este 16 Este 0 -- -- 47
2019-07-23 02:00:00 24.2 12 Este 33 Este 0 -- -- 46
2019-07-23 01:00:00 25 21 Este 38 Este 0 -- -- 44
2019-07-23 00:00:00 25.3 24 Sudeste 59 Sudeste 0 -- -- 45
2019-07-22 23:00:00 25.5 9 Este 18 Este 0 -- -- 43
2019-07-22 22:00:00 24.7 5 Este 19 Noroeste 0 -- -- 53
2019-07-22 21:00:00 23.6 2 Norte 28 Oeste 0 -- -- 67
2019-07-22 20:00:00 23.4 18 Sudeste 52 Noroeste 15.2 -- -- 62
2019-07-22 19:00:00 25.6 31 Sudeste 56 Sudeste 0.4 -- -- 50
2019-07-22 18:00:00 36.1 6 Norte 20 Noroeste 0 -- -- 26
2019-07-22 17:00:00 37.4 15 Noroeste 24 Noroeste 0 -- -- 27
2019-07-22 16:00:00 37.2 10 Noroeste 18 Noroeste 0 -- -- 27
2019-07-22 15:00:00 35.5 9 Noroeste 16 Noroeste 0 -- -- 31
2019-07-22 14:00:00 33.2 6 Norte 15 Noroeste 0 -- -- 34
2019-07-22 13:00:00 31.2 5 Noroeste 14 Norte 0 -- -- 39
2019-07-22 12:00:00 28.5 6 Norte 19 Este 0 -- -- 50
2019-07-22 11:00:00 25.9 10 Este 19 Nordeste 0 -- -- 57
2019-07-22 10:00:00 23.3 8 Nordeste 18 Nordeste 0 -- -- 67
2019-07-22 09:00:00 21 12 Este 17 Este 0 -- -- 74
2019-07-22 08:00:00 19.2 10 Este 18 Este 0 -- -- 81
2019-07-22 07:00:00 18.7 9 Este 13 Este 0 -- -- 82
2019-07-22 06:00:00 19.7 9 Nordeste 15 Nordeste 0 -- -- 76
2019-07-22 05:00:00 20.4 9 Este 14 Nordeste 0 -- -- 69
2019-07-22 04:00:00 21.3 5 Nordeste 11 Nordeste -- -- -- 55
2019-07-22 03:00:00 23.1 6 Nordeste 11 Nordeste 0 -- -- 49
2019-07-22 02:00:00 24.4 6 Este 10 Nordeste 0 -- -- 46
2019-07-22 01:00:00 25 8 Este 10 Este 0 -- -- 44
2019-07-22 00:00:00 26.3 4 Nordeste 12 Nordeste 0 -- -- 41